Annada, Missouri
Current Conditions -  °F | °C
As of 10:15 AM on Thursday 27 Nov 2014 (Local Time) from KPPQ Reporting Station
Overcast Overcast  
Wind Chill: 18°   Ceiling: 2300
Heat Index: 27°   Visibility: 10mi
Dew Point: 20°   Wind: 9mph
Humidity: 73%   Direction: 300°WNW
Pressure: 30.49"   Gusts: 21mph
Location:  39.26°N, 90.83°W
Report Text: KPPQ 271615Z AUTO 30008G18KT 10SM OVC023 M03/M07 A3049 RMK AO2 T10271069 PWINO
Loading
Personal Weather Stations






























Interactive Weather Map New forecast layout! Learn more

10-Day Weather Forecast

Advertisements
Track Severe Weather on mobile